Time;durP1;ratioP1;P1;durP2;ratioP2;P2;SDS_P1;SDS_P2;PMS_P1;PMS_P2;Temp;Humidity;BMP_temperature;BMP_pressure;BME280_temperature;BME280_humidity;BME280_pressure;Samples;Min_cycle;Max_cycle;Signal;HPM_P1;HPM_P2
2021/09/11 00:00:20;;;;;;;7.10;4.47;;;19.00;57.40;;;;;;5033939;28;20053;-70
2021/09/11 00:02:48;;;;;;;6.65;4.07;;;18.90;57.50;;;;;;5051438;28;20056;-70
2021/09/11 00:05:15;;;;;;;4.10;3.45;;;18.90;57.30;;;;;;5051635;28;20053;-71
2021/09/11 00:07:41;;;;;;;8.30;4.25;;;18.80;57.20;;;;;;5051756;28;20474;-70
2021/09/11 00:10:09;;;;;;;5.90;4.20;;;18.80;57.30;;;;;;5051450;28;20029;-71
2021/09/11 00:12:36;;;;;;;5.47;4.10;;;18.80;57.20;;;;;;5051362;28;20135;-71
2021/09/11 00:15:06;;;;;;;6.30;3.85;;;18.70;57.00;;;;;;5051635;28;20393;-71
2021/09/11 00:17:32;;;;;;;6.60;3.80;;;18.70;57.00;;;;;;5051682;28;20048;-70
2021/09/11 00:19:58;;;;;;;6.35;4.18;;;18.60;57.00;;;;;;5051467;28;20427;-70
2021/09/11 00:22:24;;;;;;;5.75;3.95;;;18.60;57.00;;;;;;5051301;28;20029;-70
2021/09/11 00:24:50;;;;;;;5.18;3.47;;;18.50;57.00;;;;;;5051462;28;20478;-71
2021/09/11 00:27:16;;;;;;;4.95;3.83;;;18.50;56.90;;;;;;5051496;28;20028;-71
2021/09/11 00:29:42;;;;;;;5.30;4.32;;;18.50;57.10;;;;;;5051126;28;20087;-70
2021/09/11 00:32:08;;;;;;;5.15;3.88;;;18.50;57.30;;;;;;5051111;28;20087;-70
2021/09/11 00:34:34;;;;;;;7.30;4.40;;;18.40;57.30;;;;;;5051573;28;20390;-71
2021/09/11 00:36:59;;;;;;;6.50;4.22;;;18.40;57.50;;;;;;5033367;28;20025;-70
2021/09/11 00:39:25;;;;;;;8.93;5.68;;;18.40;58.10;;;;;;5051246;28;20100;-70
2021/09/11 00:41:52;;;;;;;7.22;5.07;;;18.30;59.30;;;;;;5044056;28;20086;-70
2021/09/11 00:44:18;;;;;;;8.70;5.45;;;18.30;60.10;;;;;;5051346;28;20029;-70
2021/09/11 00:46:44;;;;;;;8.32;5.55;;;18.30;61.40;;;;;;5042442;28;20474;-70
2021/09/11 00:49:10;;;;;;;7.20;5.72;;;18.30;61.60;;;;;;5034062;28;20025;-70
2021/09/11 00:51:36;;;;;;;9.45;5.90;;;18.30;61.70;;;;;;5053077;28;20036;-72
2021/09/11 00:54:03;;;;;;;9.18;5.40;;;18.30;61.70;;;;;;5033901;28;20029;-71
2021/09/11 00:56:30;;;;;;;9.00;5.00;;;18.30;61.20;;;;;;5034416;28;20024;-71
2021/09/11 00:58:58;;;;;;;6.28;4.80;;;18.30;60.90;;;;;;5052143;28;20035;-70
2021/09/11 01:01:24;;;;;;;5.78;4.28;;;18.30;61.10;;;;;;5052625;28;20048;-70
2021/09/11 01:03:49;;;;;;;7.38;4.95;;;18.30;59.90;;;;;;5055563;28;20021;-70
2021/09/11 01:06:15;;;;;;;6.15;5.00;;;18.30;60.10;;;;;;5056023;28;20021;-71
2021/09/11 01:08:41;;;;;;;6.32;4.97;;;18.30;60.50;;;;;;5055512;28;20082;-70
2021/09/11 01:11:08;;;;;;;6.07;4.93;;;18.30;59.90;;;;;;5037539;28;20487;-70
2021/09/11 01:13:35;;;;;;;5.90;4.30;;;18.20;59.70;;;;;;5055470;28;20032;-70
2021/09/11 01:16:01;;;;;;;6.15;4.63;;;18.20;59.70;;;;;;5037736;28;20514;-70
2021/09/11 01:18:27;;;;;;;6.95;5.03;;;18.20;59.60;;;;;;5055499;28;20052;-70
2021/09/11 01:20:54;;;;;;;6.38;4.75;;;18.20;60.00;;;;;;5055028;28;20032;-70
2021/09/11 01:23:20;;;;;;;7.50;5.38;;;18.20;60.10;;;;;;5055093;28;20124;-70
2021/09/11 01:25:47;;;;;;;7.30;4.40;;;18.10;59.90;;;;;;5055464;28;20017;-70
2021/09/11 01:28:14;;;;;;;4.45;3.78;;;18.10;59.60;;;;;;5055160;28;20072;-70
2021/09/11 01:30:40;;;;;;;7.70;5.15;;;18.10;59.50;;;;;;5042666;28;20094;-70
2021/09/11 01:33:06;;;;;;;5.30;4.15;;;18.10;59.50;;;;;;5054705;28;20075;-70
2021/09/11 01:35:33;;;;;;;5.75;4.18;;;18.10;59.30;;;;;;5037523;28;20040;-70
2021/09/11 01:37:59;;;;;;;7.80;4.32;;;18.00;59.30;;;;;;5054961;28;20033;-71
2021/09/11 01:40:25;;;;;;;4.50;3.83;;;18.00;59.20;;;;;;5050842;28;20386;-70
2021/09/11 01:42:51;;;;;;;4.93;4.20;;;18.00;59.20;;;;;;5043401;28;20025;-70
2021/09/11 01:45:20;;;;;;;4.72;3.65;;;17.90;59.20;;;;;;5055365;28;20363;-70
2021/09/11 01:47:50;;;;;;;7.53;4.20;;;17.90;59.30;;;;;;5055358;28;20028;-71
2021/09/11 01:50:20;;;;;;;5.90;3.88;;;17.90;59.20;;;;;;5055560;28;20025;-70
2021/09/11 01:52:46;;;;;;;6.95;3.45;;;17.90;59.30;;;;;;5048830;28;20032;-70
2021/09/11 01:55:14;;;;;;;5.53;3.90;;;17.80;59.10;;;;;;5055002;28;20757;-71
2021/09/11 01:57:41;;;;;;;5.35;3.53;;;17.80;59.10;;;;;;5037151;28;20024;-70
2021/09/11 02:00:17;;;;;;;4.65;3.50;;;17.80;59.00;;;;;;5054074;28;20025;-70
2021/09/11 02:02:43;;;;;;;5.28;3.53;;;17.70;59.00;;;;;;5053873;28;20537;-71
2021/09/11 02:05:10;;;;;;;4.18;3.53;;;17.70;59.00;;;;;;5054781;28;20024;-70
2021/09/11 02:07:36;;;;;;;6.25;4.18;;;17.70;59.10;;;;;;5054166;28;20036;-70
2021/09/11 02:10:04;;;;;;;6.65;4.63;;;17.70;59.30;;;;;;5036813;28;20033;-71
2021/09/11 02:12:29;;;;;;;4.63;3.75;;;17.70;59.70;;;;;;5054054;28;20045;-70
2021/09/11 02:14:55;;;;;;;5.13;3.20;;;17.60;59.50;;;;;;5054309;28;20064;-70
2021/09/11 02:17:21;;;;;;;5.45;3.92;;;17.70;59.40;;;;;;5054261;28;20043;-71
2021/09/11 02:19:47;;;;;;;7.82;3.72;;;17.70;59.50;;;;;;5054655;28;20540;-70
2021/09/11 02:22:14;;;;;;;5.78;4.43;;;17.60;59.50;;;;;;5053839;28;20068;-70
2021/09/11 02:24:40;;;;;;;10.13;4.65;;;17.60;59.70;;;;;;5054115;28;20083;-70
2021/09/11 02:27:06;;;;;;;5.95;4.28;;;17.60;59.70;;;;;;5054173;28;20017;-70
2021/09/11 02:29:32;;;;;;;8.73;4.70;;;17.60;59.80;;;;;;5054258;28;20021;-70
2021/09/11 02:31:58;;;;;;;5.70;4.32;;;17.50;59.70;;;;;;5053913;28;20507;-70
2021/09/11 02:34:25;;;;;;;7.50;4.65;;;17.50;59.80;;;;;;5054155;28;20112;-70
2021/09/11 02:36:51;;;;;;;7.38;4.78;;;17.50;59.90;;;;;;5053579;28;20036;-70
2021/09/11 02:39:16;;;;;;;6.05;4.63;;;17.50;59.90;;;;;;5054133;28;20017;-71
2021/09/11 02:41:42;;;;;;;7.63;4.88;;;17.50;59.90;;;;;;5046888;28;20486;-70
2021/09/11 02:44:08;;;;;;;6.30;4.68;;;17.50;59.80;;;;;;5054046;28;20025;-70
2021/09/11 02:46:33;;;;;;;8.70;4.70;;;17.50;59.90;;;;;;5053949;28;20091;-70
2021/09/11 02:49:00;;;;;;;6.22;4.53;;;17.40;60.00;;;;;;5053696;28;20109;-70
2021/09/11 02:51:26;;;;;;;5.47;4.20;;;17.40;60.00;;;;;;5053729;28;20021;-70
2021/09/11 02:53:52;;;;;;;6.65;4.25;;;17.40;60.00;;;;;;5053505;28;20101;-70
2021/09/11 02:56:18;;;;;;;5.65;3.95;;;17.40;60.00;;;;;;5053797;28;20053;-70
2021/09/11 02:58:44;;;;;;;6.65;4.53;;;17.40;60.00;;;;;;5053476;28;20055;-70
2021/09/11 03:01:09;;;;;;;5.32;3.95;;;17.40;60.00;;;;;;5053237;28;20433;-70
2021/09/11 03:03:37;;;;;;;6.03;4.45;;;17.40;60.10;;;;;;5053237;28;20025;-70
2021/09/11 03:06:02;;;;;;;6.05;4.20;;;17.30;60.30;;;;;;5053571;28;20021;-70
2021/09/11 03:08:28;;;;;;;7.82;4.88;;;17.30;60.50;;;;;;5053311;28;20031;-70
2021/09/11 03:10:54;;;;;;;6.25;4.70;;;17.30;60.50;;;;;;5036418;28;20032;-70
2021/09/11 03:13:20;;;;;;;8.07;4.85;;;17.30;60.50;;;;;;5051295;28;20412;-71
2021/09/11 03:15:46;;;;;;;7.32;4.75;;;17.20;60.40;;;;;;5053469;28;20470;-70
2021/09/11 03:18:11;;;;;;;7.72;4.15;;;17.30;60.70;;;;;;5053140;28;20041;-71
2021/09/11 03:20:37;;;;;;;5.32;4.53;;;17.20;60.60;;;;;;5052832;28;20393;-70
2021/09/11 03:23:04;;;;;;;5.35;3.95;;;17.20;60.60;;;;;;5053310;28;20028;-70
2021/09/11 03:25:30;;;;;;;5.10;3.90;;;17.20;60.60;;;;;;5035417;28;20013;-70
2021/09/11 03:27:57;;;;;;;6.18;4.15;;;17.20;60.60;;;;;;5053051;28;20082;-70
2021/09/11 03:30:23;;;;;;;7.75;4.53;;;17.20;60.70;;;;;;5052651;28;20047;-70
2021/09/11 03:32:49;;;;;;;7.53;5.30;;;17.20;61.10;;;;;;5052660;28;20124;-70
2021/09/11 03:35:15;;;;;;;8.13;5.07;;;17.10;61.30;;;;;;5052995;28;20016;-70
2021/09/11 03:37:41;;;;;;;7.20;4.78;;;17.10;61.40;;;;;;5053052;28;20021;-71
2021/09/11 03:40:07;;;;;;;7.22;5.13;;;17.10;61.50;;;;;;5052716;28;20025;-70
2021/09/11 03:42:33;;;;;;;8.07;4.70;;;17.10;61.50;;;;;;5052907;28;20039;-70
2021/09/11 03:44:59;;;;;;;6.00;4.20;;;17.10;61.60;;;;;;5052669;28;20498;-70
2021/09/11 03:47:24;;;;;;;5.70;4.57;;;17.10;61.50;;;;;;5034845;28;20119;-70
2021/09/11 03:49:50;;;;;;;7.03;4.30;;;17.10;61.60;;;;;;5036660;28;20023;-70
2021/09/11 03:52:16;;;;;;;9.10;5.22;;;17.10;61.70;;;;;;5051866;28;20104;-70
2021/09/11 03:54:42;;;;;;;5.85;4.75;;;17.10;61.70;;;;;;5049124;28;20106;-71
2021/09/11 03:57:08;;;;;;;6.05;4.70;;;17.10;61.80;;;;;;5036850;28;20032;-70
2021/09/11 03:59:33;;;;;;;11.98;5.25;;;17.10;61.90;;;;;;5052430;28;20052;-70
2021/09/11 04:01:59;;;;;;;10.02;4.85;;;17.00;62.00;;;;;;5052246;28;20117;-70
2021/09/11 04:04:25;;;;;;;6.50;5.28;;;17.10;62.10;;;;;;5052558;28;20444;-70
2021/09/11 04:06:51;;;;;;;7.45;5.47;;;17.00;62.40;;;;;;5052589;28;20074;-70
2021/09/11 04:09:17;;;;;;;6.60;4.93;;;17.10;62.40;;;;;;5052477;28;20029;-70
2021/09/11 04:11:42;;;;;;;9.10;5.85;;;17.00;62.40;;;;;;5052174;28;20021;-70
2021/09/11 04:14:08;;;;;;;9.07;5.45;;;17.00;62.50;;;;;;5052480;28;20025;-70
2021/09/11 04:16:34;;;;;;;7.25;5.38;;;17.10;62.60;;;;;;5052433;28;20024;-70
2021/09/11 04:19:00;;;;;;;8.80;5.95;;;17.00;63.10;;;;;;5052457;28;20074;-70
2021/09/11 04:21:25;;;;;;;10.32;5.90;;;17.00;62.80;;;;;;5052036;28;20020;-70
2021/09/11 04:23:51;;;;;;;8.85;5.97;;;17.00;63.30;;;;;;5052238;28;20036;-70
2021/09/11 04:26:17;;;;;;;8.75;5.63;;;17.00;63.20;;;;;;5034412;28;20352;-70
2021/09/11 04:28:43;;;;;;;9.65;5.22;;;17.00;63.10;;;;;;5052424;28;20056;-70
2021/09/11 04:31:08;;;;;;;7.70;5.75;;;17.00;63.00;;;;;;5051839;28;20072;-70
2021/09/11 04:33:34;;;;;;;6.50;5.32;;;17.00;63.00;;;;;;5052175;28;20037;-70
2021/09/11 04:36:00;;;;;;;7.68;5.60;;;17.00;63.00;;;;;;5052646;28;20033;-70
2021/09/11 04:38:25;;;;;;;10.07;4.70;;;17.00;63.00;;;;;;5056296;28;20033;-70
2021/09/11 04:40:51;;;;;;;7.07;5.03;;;17.00;63.00;;;;;;5056041;28;20104;-70
2021/09/11 04:43:18;;;;;;;16.00;6.20;;;17.00;63.20;;;;;;5055833;28;20047;-70
2021/09/11 04:45:46;;;;;;;7.22;5.40;;;17.00;63.20;;;;;;5056487;28;20017;-70
2021/09/11 04:48:12;;;;;;;8.50;5.65;;;17.00;63.10;;;;;;5056185;28;20039;-70
2021/09/11 04:50:38;;;;;;;9.00;5.82;;;17.00;63.00;;;;;;5055639;28;20374;-70
2021/09/11 04:53:03;;;;;;;6.72;5.07;;;17.00;63.00;;;;;;5047942;28;20039;-71
2021/09/11 04:55:29;;;;;;;7.88;5.72;;;17.00;63.10;;;;;;5054986;28;20023;-70
2021/09/11 04:57:55;;;;;;;7.10;4.63;;;17.00;63.20;;;;;;5054395;28;20086;-70
2021/09/11 05:00:21;;;;;;;7.63;5.15;;;17.00;63.30;;;;;;5055816;28;20059;-71
2021/09/11 05:02:46;;;;;;;11.35;5.22;;;17.00;63.30;;;;;;5055550;28;20487;-70
2021/09/11 05:05:12;;;;;;;8.63;5.63;;;17.00;63.30;;;;;;5037828;28;20028;-70
2021/09/11 05:07:38;;;;;;;7.72;5.38;;;17.00;63.30;;;;;;5055652;28;20021;-70
2021/09/11 05:10:05;;;;;;;6.55;4.55;;;17.00;63.40;;;;;;5055563;28;20029;-70
2021/09/11 05:12:30;;;;;;;5.47;4.18;;;17.00;63.30;;;;;;5055412;28;20025;-70
2021/09/11 05:14:56;;;;;;;5.55;4.28;;;17.00;63.20;;;;;;5055697;28;20166;-70
2021/09/11 05:17:22;;;;;;;6.30;4.68;;;17.00;63.20;;;;;;5055237;28;20029;-70
2021/09/11 05:19:48;;;;;;;6.32;4.55;;;17.10;63.40;;;;;;5055436;28;20494;-71
2021/09/11 05:22:13;;;;;;;6.97;4.65;;;17.10;63.30;;;;;;5045146;28;20050;-70
2021/09/11 05:24:39;;;;;;;14.88;4.97;;;17.10;63.30;;;;;;5055625;28;20033;-70
2021/09/11 05:27:05;;;;;;;6.28;4.72;;;17.20;63.40;;;;;;5040678;28;20036;-70
2021/09/11 05:29:31;;;;;;;6.20;4.80;;;17.30;63.40;;;;;;5055406;28;20041;-70
2021/09/11 05:31:57;;;;;;;8.23;5.07;;;17.30;63.40;;;;;;5053997;28;20116;-70
2021/09/11 05:34:22;;;;;;;10.32;5.60;;;17.30;63.30;;;;;;5055171;28;20505;-71
2021/09/11 05:36:50;;;;;;;13.15;5.88;;;17.40;63.50;;;;;;5045304;28;20091;-70
2021/09/11 05:39:17;;;;;;;14.90;7.80;;;17.50;63.40;;;;;;5055036;28;20021;-70
2021/09/11 05:41:43;;;;;;;20.38;7.10;;;17.60;63.60;;;;;;5054707;28;20025;-70
2021/09/11 05:44:09;;;;;;;12.23;7.28;;;17.60;63.60;;;;;;5054535;28;20056;-71
2021/09/11 05:46:34;;;;;;;19.30;8.05;;;17.70;63.50;;;;;;5036600;28;20053;-70
2021/09/11 05:49:00;;;;;;;15.85;7.07;;;17.70;63.50;;;;;;5053587;28;20078;-70
2021/09/11 05:51:26;;;;;;;13.32;7.10;;;17.80;63.50;;;;;;5054453;28;20044;-70
2021/09/11 05:53:52;;;;;;;9.75;6.07;;;17.90;63.40;;;;;;5054559;28;20090;-70
2021/09/11 05:56:18;;;;;;;12.18;6.88;;;17.90;63.10;;;;;;5054892;28;20416;-70
2021/09/11 05:58:44;;;;;;;9.93;6.28;;;18.00;63.30;;;;;;5054729;28;20151;-70
2021/09/11 06:01:09;;;;;;;9.65;6.07;;;18.10;63.20;;;;;;5047885;28;20375;-69
2021/09/11 06:03:35;;;;;;;7.00;5.30;;;18.10;63.00;;;;;;5054176;28;20075;-70
2021/09/11 06:06:01;;;;;;;11.85;6.40;;;18.20;63.00;;;;;;5054805;28;20029;-71
2021/09/11 06:08:27;;;;;;;19.27;8.10;;;18.30;62.90;;;;;;5054754;28;20032;-71
2021/09/11 06:10:53;;;;;;;9.75;6.38;;;18.30;62.70;;;;;;5054395;28;20475;-71
2021/09/11 06:13:19;;;;;;;10.57;7.28;;;18.40;62.60;;;;;;5054114;28;20047;-70
2021/09/11 06:15:45;;;;;;;13.85;6.20;;;18.50;62.50;;;;;;5054573;28;20557;-71
2021/09/11 06:18:11;;;;;;;9.73;5.85;;;18.50;62.20;;;;;;5054267;28;20029;-70
2021/09/11 06:20:37;;;;;;;11.00;6.50;;;18.60;62.10;;;;;;5054362;28;20025;-70
2021/09/11 06:23:03;;;;;;;8.75;5.97;;;18.70;61.90;;;;;;5054358;28;20021;-71
2021/09/11 06:25:28;;;;;;;9.82;6.43;;;18.70;61.70;;;;;;5054384;28;20025;-70
2021/09/11 06:27:54;;;;;;;10.52;6.88;;;18.80;61.70;;;;;;5054225;28;20025;-70
2021/09/11 06:30:22;;;;;;;14.95;7.15;;;18.80;61.70;;;;;;5053722;28;20029;-70
2021/09/11 06:32:48;;;;;;;11.73;6.90;;;18.90;61.50;;;;;;5039902;28;20386;-70
2021/09/11 06:35:14;;;;;;;12.27;6.90;;;19.00;61.40;;;;;;5054252;28;20025;-70
2021/09/11 06:37:39;;;;;;;9.30;6.97;;;19.00;61.30;;;;;;5053767;28;20036;-70
2021/09/11 06:40:06;;;;;;;11.90;7.72;;;19.10;61.20;;;;;;5053800;28;20029;-71
2021/09/11 06:42:32;;;;;;;10.02;7.40;;;19.20;61.00;;;;;;5054397;28;20517;-71
2021/09/11 06:44:58;;;;;;;12.05;6.93;;;19.30;60.80;;;;;;5052809;28;20029;-70
2021/09/11 06:47:24;;;;;;;12.07;6.95;;;19.30;60.70;;;;;;5035267;28;20025;-71
2021/09/11 06:49:50;;;;;;;8.20;6.05;;;19.50;60.60;;;;;;5035619;28;20422;-70
2021/09/11 06:52:15;;;;;;;9.10;7.15;;;19.50;60.40;;;;;;5041064;28;20029;-70
2021/09/11 06:54:41;;;;;;;13.23;7.22;;;19.60;60.30;;;;;;5050969;28;20389;-70
2021/09/11 06:57:07;;;;;;;11.25;6.50;;;19.80;60.30;;;;;;5054116;28;20432;-71
2021/09/11 06:59:33;;;;;;;11.98;7.18;;;20.00;60.30;;;;;;5052412;28;20033;-71
2021/09/11 07:01:59;;;;;;;10.48;6.60;;;20.10;59.90;;;;;;5053007;28;20035;-70
2021/09/11 07:04:24;;;;;;;11.10;7.68;;;20.30;59.70;;;;;;5053573;28;20051;-71
2021/09/11 07:06:50;;;;;;;9.68;7.80;;;20.50;59.10;;;;;;5053262;28;20474;-70
2021/09/11 07:09:16;;;;;;;12.13;7.95;;;20.60;58.80;;;;;;5053469;28;20425;-71
2021/09/11 07:11:42;;;;;;;10.80;7.57;;;20.80;58.30;;;;;;5052788;28;20390;-70
2021/09/11 07:14:08;;;;;;;10.38;6.65;;;20.90;57.60;;;;;;5053360;28;20025;-71
2021/09/11 07:16:35;;;;;;;11.43;8.20;;;21.00;57.40;;;;;;5035534;28;20377;-70
2021/09/11 07:19:00;;;;;;;11.10;8.43;;;21.10;57.20;;;;;;5053208;28;20111;-71
2021/09/11 07:21:26;;;;;;;8.73;7.40;;;21.20;57.10;;;;;;5053497;28;20116;-71
2021/09/11 07:23:52;;;;;;;9.05;6.90;;;21.30;57.20;;;;;;5053098;28;20442;-71
2021/09/11 07:26:21;;;;;;;9.05;6.63;;;21.40;57.30;;;;;;5053222;28;20025;-70
2021/09/11 07:28:48;;;;;;;11.63;8.68;;;21.40;57.30;;;;;;5052459;28;20021;-71
2021/09/11 07:31:14;;;;;;;14.52;8.93;;;21.50;57.20;;;;;;5030828;28;20045;-71
2021/09/11 07:33:40;;;;;;;10.10;8.30;;;21.50;57.30;;;;;;5032531;28;20025;-70
2021/09/11 07:36:06;;;;;;;11.52;8.40;;;21.60;57.40;;;;;;5033018;28;20029;-71
2021/09/11 07:38:36;;;;;;;13.48;8.38;;;21.60;57.30;;;;;;5031855;28;20223;-71
2021/09/11 07:41:03;;;;;;;11.80;9.18;;;21.70;57.30;;;;;;5032826;28;20040;-70
2021/09/11 07:43:29;;;;;;;11.85;8.68;;;21.70;57.80;;;;;;5033020;28;20060;-71
2021/09/11 07:45:54;;;;;;;13.48;9.65;;;21.80;57.30;;;;;;5033010;28;20017;-71
2021/09/11 07:48:20;;;;;;;17.33;9.10;;;21.90;57.30;;;;;;5033064;28;20022;-71
2021/09/11 07:50:46;;;;;;;10.98;9.23;;;21.90;57.30;;;;;;5033007;28;20027;-71
2021/09/11 07:53:12;;;;;;;13.20;9.35;;;22.00;57.40;;;;;;5031149;28;20121;-71
2021/09/11 07:55:37;;;;;;;13.13;9.27;;;22.10;57.50;;;;;;5032884;28;20017;-71
2021/09/11 07:58:03;;;;;;;9.48;8.02;;;22.20;57.40;;;;;;5032620;28;20088;-71
2021/09/11 08:00:29;;;;;;;11.40;8.80;;;22.30;57.40;;;;;;5032877;28;20021;-71
2021/09/11 08:02:55;;;;;;;12.65;9.30;;;22.50;57.00;;;;;;5032692;28;20422;-72
2021/09/11 08:05:21;;;;;;;11.73;8.80;;;22.70;56.90;;;;;;5031649;28;20021;-70
2021/09/11 08:07:49;;;;;;;12.40;7.53;;;22.80;56.50;;;;;;5032584;28;20052;-71
2021/09/11 08:10:16;;;;;;;12.55;7.82;;;23.00;56.50;;;;;;5032447;28;20018;-71
2021/09/11 08:12:42;;;;;;;10.18;7.97;;;23.30;56.20;;;;;;5032116;28;20028;-71
2021/09/11 08:15:08;;;;;;;10.63;8.57;;;23.40;55.90;;;;;;5031212;28;20494;-71
2021/09/11 08:17:34;;;;;;;11.35;8.38;;;23.60;55.20;;;;;;5031406;28;20030;-71
2021/09/11 08:20:00;;;;;;;9.98;8.70;;;23.80;54.90;;;;;;5032593;28;20076;-71
2021/09/11 08:22:26;;;;;;;10.05;7.97;;;24.00;54.50;;;;;;5032702;28;20056;-71
2021/09/11 08:24:53;;;;;;;9.50;8.50;;;24.10;54.20;;;;;;5032549;28;20068;-71
2021/09/11 08:27:19;;;;;;;14.63;8.75;;;24.20;54.10;;;;;;5032652;28;20582;-70
2021/09/11 08:29:45;;;;;;;11.10;8.52;;;24.40;53.80;;;;;;5033162;28;20025;-71
2021/09/11 08:32:11;;;;;;;13.32;8.90;;;24.50;53.40;;;;;;5052286;28;20079;-71
2021/09/11 08:34:37;;;;;;;17.02;9.07;;;24.70;53.30;;;;;;5052317;28;20457;-71
2021/09/11 08:37:03;;;;;;;13.95;9.60;;;24.80;52.40;;;;;;5052242;28;20382;-71
2021/09/11 08:39:28;;;;;;;12.45;9.90;;;24.90;52.50;;;;;;5052251;28;20021;-71
2021/09/11 08:41:55;;;;;;;9.57;8.57;;;25.00;52.00;;;;;;5052349;28;20021;-71
2021/09/11 08:44:23;;;;;;;19.17;9.57;;;25.00;52.10;;;;;;5034283;28;20120;-71
2021/09/11 08:46:49;;;;;;;12.45;9.55;;;25.20;51.80;;;;;;5052248;28;20378;-71
2021/09/11 08:49:15;;;;;;;12.43;10.30;;;25.20;51.80;;;;;;5051988;28;20024;-71
2021/09/11 08:51:41;;;;;;;11.32;9.25;;;25.30;51.30;;;;;;5052027;28;20017;-71
2021/09/11 08:54:07;;;;;;;15.20;10.50;;;25.40;51.40;;;;;;5046006;28;20021;-71
2021/09/11 08:56:45;;;;;;;12.98;10.80;;;25.50;51.30;;;;;;5052190;28;20484;-72
2021/09/11 08:59:13;;;;;;;12.95;10.80;;;25.50;50.90;;;;;;5036360;28;20067;-71
2021/09/11 09:01:40;;;;;;;13.00;11.43;;;25.60;50.60;;;;;;5052410;28;20104;-72
2021/09/11 09:04:06;;;;;;;15.68;11.63;;;25.60;50.20;;;;;;5052257;28;20111;-71
2021/09/11 09:06:34;;;;;;;13.30;10.48;;;25.50;50.40;;;;;;5052495;28;20057;-71
2021/09/11 09:09:14;;;;;;;19.30;10.52;;;25.40;50.60;;;;;;5053062;28;20028;-71
2021/09/11 09:11:42;;;;;;;16.63;10.75;;;25.30;50.80;;;;;;5052205;28;20096;-71
2021/09/11 09:14:16;;;;;;;12.38;10.90;;;25.30;50.80;;;;;;5052083;28;20489;-71
2021/09/11 09:16:42;;;;;;;18.35;12.05;;;25.20;51.10;;;;;;5034369;28;20035;-71
2021/09/11 09:19:11;;;;;;;12.98;11.07;;;25.10;51.10;;;;;;5051978;28;20529;-71
2021/09/11 09:21:38;;;;;;;16.08;13.30;;;25.10;51.40;;;;;;5052051;28;20029;-71
2021/09/11 09:24:07;;;;;;;15.15;12.45;;;25.00;51.40;;;;;;5055604;28;20052;-71
2021/09/11 09:26:53;;;;;;;17.00;12.90;;;24.90;51.70;;;;;;5055791;28;20032;-71
2021/09/11 09:29:20;;;;;;;18.90;14.00;;;24.90;52.00;;;;;;5023013;28;20111;-71
2021/09/11 09:31:49;;;;;;;15.43;12.75;;;24.90;52.00;;;;;;5055467;28;20091;-71
2021/09/11 09:34:36;;;;;;;16.33;12.82;;;24.90;52.20;;;;;;5055636;28;20053;-71
2021/09/11 09:37:05;;;;;;;16.35;14.05;;;24.90;52.40;;;;;;5037608;28;20382;-71
2021/09/11 09:39:39;;;;;;;14.48;12.45;;;24.90;52.30;;;;;;5055393;28;20486;-71
2021/09/11 09:42:06;;;;;;;14.77;11.77;;;24.90;52.40;;;;;;5037483;28;20110;-71
2021/09/11 09:44:44;;;;;;;21.92;13.27;;;24.90;52.50;;;;;;5055394;28;20036;-72
2021/09/11 09:47:24;;;;;;;16.42;12.68;;;24.90;52.60;;;;;;5038990;28;20021;-71
2021/09/11 09:50:10;;;;;;;13.05;10.80;;;24.90;52.50;;;;;;5055512;28;20264;-70
2021/09/11 09:52:38;;;;;;;15.70;12.30;;;25.00;52.60;;;;;;5050510;28;20406;-72
2021/09/11 09:55:06;;;;;;;16.70;12.95;;;25.00;52.40;;;;;;5054484;28;20056;-71
2021/09/11 09:57:32;;;;;;;13.35;10.98;;;25.10;52.30;;;;;;5037211;28;20032;-72
2021/09/11 10:00:03;;;;;;;15.85;12.13;;;25.10;52.20;;;;;;5054993;28;20096;-71
2021/09/11 10:02:28;;;;;;;13.20;10.80;;;25.10;52.30;;;;;;5055042;28;20099;-72
2021/09/11 10:04:56;;;;;;;13.32;10.57;;;25.20;52.30;;;;;;5054793;28;20029;-71
2021/09/11 10:07:22;;;;;;;13.20;9.70;;;25.30;52.20;;;;;;5054912;28;20025;-72
2021/09/11 10:09:50;;;;;;;15.00;10.93;;;25.40;52.10;;;;;;5054922;28;20108;-71
2021/09/11 10:12:35;;;;;;;11.43;9.25;;;25.40;51.70;;;;;;5054700;28;20060;-71
2021/09/11 10:15:28;;;;;;;10.35;8.63;;;25.50;51.50;;;;;;5054650;28;20226;-72
2021/09/11 10:17:55;;;;;;;11.60;9.05;;;25.60;51.40;;;;;;5054566;28;20017;-71
2021/09/11 10:20:22;;;;;;;11.27;8.57;;;25.70;51.10;;;;;;5054683;28;20047;-71
2021/09/11 10:23:08;;;;;;;9.68;7.93;;;25.70;51.20;;;;;;5036533;28;20111;-71
2021/09/11 10:25:46;;;;;;;10.38;8.15;;;25.80;50.80;;;;;;5054481;28;20028;-71
2021/09/11 10:28:13;;;;;;;9.13;7.88;;;25.80;50.60;;;;;;5054337;28;20047;-72
2021/09/11 10:31:01;;;;;;;12.30;8.65;;;25.90;50.50;;;;;;5054336;28;20045;-72
2021/09/11 10:33:42;;;;;;;10.63;8.27;;;26.00;50.60;;;;;;5039845;28;20348;-71
2021/09/11 10:36:17;;;;;;;9.52;8.38;;;26.10;50.30;;;;;;5054224;28;20025;-71
2021/09/11 10:38:43;;;;;;;14.23;8.77;;;26.10;50.10;;;;;;5054262;28;20028;-71
2021/09/11 10:41:11;;;;;;;13.38;8.45;;;26.20;50.10;;;;;;5037727;28;20378;-71
2021/09/11 10:44:06;;;;;;;11.80;9.73;;;26.30;50.00;;;;;;5054062;28;20132;-71
2021/09/11 10:46:53;;;;;;;10.48;8.85;;;26.30;50.00;;;;;;5054114;28;20108;-71
2021/09/11 10:49:36;;;;;;;12.02;8.68;;;26.30;49.90;;;;;;5027389;28;20414;-71
2021/09/11 10:52:10;;;;;;;11.05;9.45;;;26.30;49.60;;;;;;5053508;28;20029;-71
2021/09/11 10:54:43;;;;;;;9.45;7.97;;;26.40;49.20;;;;;;5049457;28;20031;-71
2021/09/11 10:57:16;;;;;;;10.65;8.35;;;26.40;49.40;;;;;;5037186;28;20028;-70
2021/09/11 10:59:48;;;;;;;9.13;7.78;;;26.40;49.30;;;;;;5053856;28;20639;-71
2021/09/11 11:02:45;;;;;;;11.07;8.40;;;26.50;49.50;;;;;;5053795;28;20032;-71
2021/09/11 11:05:14;;;;;;;10.05;8.68;;;26.60;49.50;;;;;;5029030;28;20033;-71
2021/09/11 11:07:47;;;;;;;11.32;8.57;;;26.60;49.40;;;;;;5053754;28;20048;-71
2021/09/11 11:10:17;;;;;;;12.20;8.57;;;26.60;49.10;;;;;;5035811;28;20021;-72
2021/09/11 11:12:50;;;;;;;10.70;8.00;;;26.70;49.20;;;;;;5053577;28;20497;-71
2021/09/11 11:15:17;;;;;;;11.68;8.73;;;26.70;48.90;;;;;;5038214;28;20048;-71
2021/09/11 11:17:50;;;;;;;10.10;7.82;;;26.70;48.80;;;;;;5053544;28;20478;-71
2021/09/11 11:20:24;;;;;;;11.63;8.18;;;26.80;48.80;;;;;;5053455;28;20075;-70
2021/09/11 11:22:51;;;;;;;10.65;8.02;;;26.80;48.60;;;;;;5053370;28;20113;-71
2021/09/11 11:25:37;;;;;;;9.75;7.95;;;26.90;48.70;;;;;;5035388;28;20085;-72
2021/09/11 11:28:05;;;;;;;9.15;7.70;;;26.90;48.70;;;;;;5035418;28;20017;-72
2021/09/11 11:30:31;;;;;;;8.60;7.55;;;27.00;48.80;;;;;;5053026;28;20400;-71
2021/09/11 11:33:01;;;;;;;12.32;9.73;;;27.00;48.70;;;;;;5053143;28;20017;-71
2021/09/11 11:35:28;;;;;;;18.63;9.88;;;27.10;48.30;;;;;;5053090;28;20528;-71
2021/09/11 11:37:53;;;;;;;12.15;9.35;;;27.10;48.10;;;;;;5052967;28;20466;-71
2021/09/11 11:40:20;;;;;;;10.68;9.23;;;27.10;47.70;;;;;;5053108;28;20028;-71
2021/09/11 11:42:47;;;;;;;9.63;8.55;;;27.20;47.60;;;;;;5052902;28;20028;-71
2021/09/11 11:45:15;;;;;;;12.23;9.82;;;27.20;47.70;;;;;;5052411;28;20048;-71
2021/09/11 11:48:13;;;;;;;10.13;8.00;;;27.20;47.50;;;;;;5052575;28;20347;-71
2021/09/11 11:50:41;;;;;;;13.90;9.75;;;27.20;47.60;;;;;;5053034;28;20017;-72
2021/09/11 11:53:09;;;;;;;11.02;9.82;;;27.20;47.50;;;;;;5046789;28;20021;-71
2021/09/11 11:55:38;;;;;;;15.23;12.38;;;27.30;47.60;;;;;;5052939;28;20017;-71
2021/09/11 11:58:18;;;;;;;16.88;12.35;;;27.30;47.30;;;;;;5052596;28;20071;-72
2021/09/11 12:00:46;;;;;;;13.25;10.63;;;27.30;46.80;;;;;;5034786;28;20021;-71
2021/09/11 12:03:35;;;;;;;13.48;11.32;;;27.40;47.20;;;;;;5052610;28;20017;-72
2021/09/11 12:06:03;;;;;;;15.68;12.25;;;27.40;48.00;;;;;;5052602;28;20017;-71
2021/09/11 12:08:29;;;;;;;14.38;11.57;;;27.50;47.10;;;;;;5052715;28;20021;-71
2021/09/11 12:10:56;;;;;;;14.30;12.18;;;27.50;47.00;;;;;;5052402;28;20445;-71
2021/09/11 12:13:23;;;;;;;12.05;10.25;;;27.50;47.00;;;;;;5052605;28;20078;-72
2021/09/11 12:15:49;;;;;;;13.20;11.10;;;27.60;47.00;;;;;;5052506;28;20043;-71
2021/09/11 12:18:17;;;;;;;12.80;10.77;;;27.70;46.70;;;;;;5052570;28;20470;-72
2021/09/11 12:20:52;;;;;;;14.55;10.90;;;27.70;46.90;;;;;;5052563;28;20025;-72
2021/09/11 12:23:28;;;;;;;14.27;10.88;;;27.80;46.30;;;;;;5037358;28;20092;-71
2021/09/11 12:25:59;;;;;;;13.45;11.60;;;27.80;46.20;;;;;;5052473;28;20496;-71
2021/09/11 12:28:36;;;;;;;15.73;11.38;;;27.90;46.30;;;;;;5052540;28;20162;-72
2021/09/11 12:31:07;;;;;;;12.45;10.50;;;27.90;46.20;;;;;;5052101;28;20045;-71
2021/09/11 12:33:44;;;;;;;11.75;10.55;;;28.00;46.30;;;;;;5052370;28;20163;-72
2021/09/11 12:36:23;;;;;;;13.50;10.10;;;28.10;46.10;;;;;;5052379;28;20032;-71
2021/09/11 12:38:50;;;;;;;12.40;10.13;;;28.10;45.70;;;;;;5052289;28;20029;-72
2021/09/11 12:41:16;;;;;;;12.02;10.77;;;28.10;45.80;;;;;;5052311;28;20021;-71
2021/09/11 12:43:42;;;;;;;11.93;9.20;;;28.10;45.50;;;;;;5052196;28;20025;-71